createdAt,value
2022-10-09T00:00:48.404Z,14.55
2022-10-09T00:03:17.166Z,9.23
2022-10-09T00:05:45.369Z,9.90
2022-10-09T00:08:12.176Z,8.32
2022-10-09T00:10:43.128Z,9.70
2022-10-09T00:13:09.912Z,8.35
2022-10-09T00:15:41.431Z,9.68
2022-10-09T00:18:09.812Z,11.88
2022-10-09T00:20:41.656Z,11.32
2022-10-09T00:23:09.414Z,10.75
2022-10-09T00:25:36.462Z,11.85
2022-10-09T00:28:04.679Z,8.98
2022-10-09T00:30:31.670Z,8.15
2022-10-09T00:32:58.387Z,12.13
2022-10-09T00:35:25.032Z,9.85
2022-10-09T00:37:51.859Z,9.88
2022-10-09T00:40:18.438Z,9.75
2022-10-09T00:42:45.698Z,10.15
2022-10-09T00:45:19.915Z,9.75
2022-10-09T00:47:53.565Z,8.35
2022-10-09T00:50:40.123Z,9.38
2022-10-09T00:53:07.998Z,9.10
2022-10-09T00:55:35.776Z,9.88
2022-10-09T00:58:02.672Z,11.50
2022-10-09T01:00:29.505Z,10.63
2022-10-09T01:02:56.201Z,9.23
2022-10-09T01:05:32.342Z,9.48
2022-10-09T01:08:16.847Z,11.77
2022-10-09T01:11:06.832Z,10.73
2022-10-09T01:13:38.849Z,10.75
2022-10-09T01:16:22.833Z,8.43
2022-10-09T01:19:08.915Z,9.65
2022-10-09T01:21:44.327Z,13.27
2022-10-09T01:27:01.692Z,10.48
2022-10-09T01:29:35.389Z,9.85
2022-10-09T01:32:04.432Z,11.23
2022-10-09T01:34:32.538Z,9.93
2022-10-09T01:37:00.093Z,11.23
2022-10-09T01:39:28.980Z,10.10
2022-10-09T01:41:56.694Z,9.02
2022-10-09T01:44:31.471Z,10.50
2022-10-09T01:46:59.362Z,10.15
2022-10-09T01:49:37.815Z,10.88
2022-10-09T01:52:16.353Z,9.82
2022-10-09T01:54:59.913Z,11.70
2022-10-09T01:57:33.798Z,12.20
2022-10-09T02:00:07.238Z,10.00
2022-10-09T02:02:40.127Z,13.32
2022-10-09T02:05:09.522Z,8.65
2022-10-09T02:07:37.156Z,8.80
2022-10-09T02:10:05.949Z,12.38
2022-10-09T02:12:38.349Z,9.32
2022-10-09T02:15:05.747Z,10.07
2022-10-09T02:17:36.786Z,10.05
2022-10-09T02:20:11.865Z,8.10
2022-10-09T02:22:38.706Z,8.07
2022-10-09T02:25:06.716Z,8.73
2022-10-09T02:27:34.015Z,8.80
2022-10-09T02:30:01.334Z,9.02
2022-10-09T02:32:28.906Z,8.30
2022-10-09T02:34:55.520Z,10.57
2022-10-09T02:37:22.116Z,12.55
2022-10-09T02:39:49.112Z,9.98
2022-10-09T02:42:16.084Z,11.63
2022-10-09T02:44:42.707Z,8.13
2022-10-09T02:47:09.605Z,8.07
2022-10-09T02:49:36.199Z,11.65
2022-10-09T02:52:02.902Z,9.55
2022-10-09T02:54:29.517Z,9.98
2022-10-09T02:56:56.185Z,8.68
2022-10-09T02:59:22.788Z,8.57
2022-10-09T03:01:49.550Z,8.88
2022-10-09T03:04:16.404Z,8.10
2022-10-09T03:06:43.003Z,9.68
2022-10-09T03:09:09.562Z,11.98
2022-10-09T03:11:36.344Z,10.73
2022-10-09T03:14:02.909Z,12.15
2022-10-09T03:16:29.641Z,12.90
2022-10-09T03:18:56.468Z,13.75
2022-10-09T03:21:25.852Z,11.55
2022-10-09T03:23:53.584Z,9.00
2022-10-09T03:26:23.437Z,9.55
2022-10-09T03:28:51.970Z,8.27
2022-10-09T03:31:50.434Z,8.55
2022-10-09T03:34:07.432Z,11.60
2022-10-09T03:36:39.755Z,11.93
2022-10-09T03:39:06.417Z,10.20
2022-10-09T03:41:32.978Z,10.13
2022-10-09T03:43:59.628Z,8.05
2022-10-09T03:46:26.258Z,10.48
2022-10-09T03:48:52.912Z,10.32
2022-10-09T03:51:19.478Z,8.85
2022-10-09T03:53:46.122Z,11.23
2022-10-09T03:56:12.722Z,12.15
2022-10-09T03:58:39.329Z,10.82
2022-10-09T04:01:05.976Z,10.50
2022-10-09T04:03:32.814Z,11.68
2022-10-09T04:05:59.463Z,9.55
2022-10-09T04:08:26.419Z,10.55
2022-10-09T04:10:58.298Z,11.38
2022-10-09T04:13:25.204Z,10.02
2022-10-09T04:15:53.461Z,15.30
2022-10-09T04:18:20.286Z,11.35
2022-10-09T04:20:54.894Z,14.65
2022-10-09T04:23:24.539Z,15.93
2022-10-09T04:25:55.846Z,17.67
2022-10-09T04:28:23.545Z,19.05
2022-10-09T04:30:50.501Z,25.80
2022-10-09T04:33:17.147Z,25.00
2022-10-09T04:35:44.735Z,24.73
2022-10-09T04:38:12.003Z,25.13
2022-10-09T04:40:38.658Z,17.08
2022-10-09T04:43:05.306Z,23.42
2022-10-09T04:45:32.108Z,18.50
2022-10-09T04:47:58.758Z,15.95
2022-10-09T04:50:25.388Z,14.40
2022-10-09T04:52:58.193Z,11.52
2022-10-09T04:55:24.831Z,11.70
2022-10-09T04:57:51.370Z,11.18
2022-10-09T05:00:18.145Z,13.40
2022-10-09T05:02:44.673Z,11.88
2022-10-09T05:05:11.883Z,11.30
2022-10-09T05:07:38.694Z,10.38
2022-10-09T05:10:06.278Z,10.52
2022-10-09T05:12:32.824Z,12.55
2022-10-09T05:14:59.591Z,12.60
2022-10-09T05:17:26.182Z,13.07
2022-10-09T05:19:52.812Z,12.60
2022-10-09T05:22:19.361Z,14.05
2022-10-09T05:24:46.014Z,16.17
2022-10-09T05:27:12.732Z,17.90
2022-10-09T05:29:39.395Z,14.35
2022-10-09T05:32:06.135Z,14.00
2022-10-09T05:34:34.005Z,17.38
2022-10-09T05:37:00.660Z,18.67
2022-10-09T05:39:27.245Z,15.98
2022-10-09T05:41:53.794Z,17.77
2022-10-09T05:44:20.503Z,16.70
2022-10-09T05:46:47.091Z,18.27
2022-10-09T05:49:13.760Z,19.40
2022-10-09T05:51:42.865Z,19.13
2022-10-09T05:54:14.337Z,18.85
2022-10-09T05:56:42.449Z,21.83
2022-10-09T05:59:13.766Z,20.58
2022-10-09T06:01:46.782Z,15.02
2022-10-09T06:04:16.686Z,20.67
2022-10-09T06:06:44.148Z,18.40
2022-10-09T06:09:11.797Z,21.15
2022-10-09T06:11:39.722Z,22.17
2022-10-09T06:14:08.936Z,21.85
2022-10-09T06:16:38.514Z,20.75
2022-10-09T06:19:06.334Z,19.70
2022-10-09T06:21:33.397Z,18.75
2022-10-09T06:24:02.133Z,19.98
2022-10-09T06:26:29.921Z,23.95
2022-10-09T06:28:58.518Z,18.63
2022-10-09T06:31:28.142Z,19.63
2022-10-09T06:33:55.570Z,23.77
2022-10-09T06:36:28.034Z,22.73
2022-10-09T06:38:55.271Z,23.40
2022-10-09T06:41:24.513Z,22.38
2022-10-09T06:43:52.637Z,25.63
2022-10-09T06:46:21.075Z,21.70
2022-10-09T06:48:48.127Z,22.92
2022-10-09T06:51:17.457Z,26.65
2022-10-09T06:53:49.790Z,25.40
2022-10-09T06:56:18.032Z,25.60
2022-10-09T06:58:45.137Z,28.38
2022-10-09T07:01:20.260Z,23.98
2022-10-09T07:03:52.264Z,24.80
2022-10-09T07:06:24.954Z,25.48
2022-10-09T07:08:58.887Z,19.17
2022-10-09T07:11:28.053Z,20.48
2022-10-09T07:14:00.090Z,23.73
2022-10-09T07:16:33.695Z,21.80
2022-10-09T07:19:03.555Z,24.15
2022-10-09T07:21:30.349Z,24.38
2022-10-09T07:24:00.138Z,26.05
2022-10-09T07:26:28.760Z,22.02
2022-10-09T07:28:56.001Z,24.00
2022-10-09T07:31:23.298Z,24.52
2022-10-09T07:33:51.592Z,26.45
2022-10-09T07:36:18.786Z,24.38
2022-10-09T07:38:50.727Z,23.00
2022-10-09T07:41:17.731Z,22.17
2022-10-09T07:43:44.277Z,23.05
2022-10-09T07:46:13.699Z,32.22
2022-10-09T07:48:40.936Z,25.80
2022-10-09T07:51:13.449Z,39.55
2022-10-09T07:53:40.041Z,33.95
2022-10-09T07:56:07.395Z,35.35
2022-10-09T07:58:34.085Z,25.20
2022-10-09T08:01:05.969Z,22.55
2022-10-09T08:03:33.263Z,25.20
2022-10-09T08:06:00.057Z,19.98
2022-10-09T08:08:26.913Z,22.13
2022-10-09T08:10:53.589Z,24.45
2022-10-09T08:13:20.217Z,22.35
2022-10-09T08:15:46.877Z,19.80
2022-10-09T08:18:13.618Z,20.75
2022-10-09T08:20:40.312Z,23.17
2022-10-09T08:23:07.010Z,22.17
2022-10-09T08:25:37.429Z,23.15
2022-10-09T08:28:05.158Z,25.88
2022-10-09T08:30:32.036Z,30.20
2022-10-09T08:32:58.827Z,24.85
2022-10-09T08:35:25.426Z,24.35
2022-10-09T08:37:52.035Z,20.35
2022-10-09T08:40:58.103Z,61.15
2022-10-09T08:43:54.525Z,24.92
2022-10-09T08:46:26.210Z,26.58
2022-10-09T08:48:54.820Z,22.15
2022-10-09T08:51:28.142Z,22.88
2022-10-09T08:54:01.067Z,21.48
2022-10-09T08:56:30.040Z,19.67
2022-10-09T08:58:57.022Z,21.92
2022-10-09T09:01:34.576Z,16.50
2022-10-09T09:04:23.102Z,19.10
2022-10-09T09:06:49.735Z,22.38
2022-10-09T09:09:38.133Z,20.02
2022-10-09T09:12:34.396Z,23.48
2022-10-09T09:15:23.463Z,21.33
2022-10-09T09:18:06.422Z,19.90
2022-10-09T09:20:48.352Z,17.08
2022-10-09T09:23:16.458Z,20.10
2022-10-09T09:25:45.780Z,21.75
2022-10-09T09:28:18.440Z,20.33
2022-10-09T09:30:50.656Z,22.10
2022-10-09T09:33:44.633Z,21.02
2022-10-09T09:36:28.252Z,43.65
2022-10-09T09:39:36.275Z,24.98
2022-10-09T09:41:43.673Z,25.30
2022-10-09T09:44:13.069Z,24.73
2022-10-09T09:46:41.791Z,22.30
2022-10-09T09:49:27.250Z,26.90
2022-10-09T09:51:56.239Z,21.67
2022-10-09T09:54:25.799Z,20.55
2022-10-09T09:57:15.886Z,24.38
2022-10-09T09:59:44.104Z,20.10
2022-10-09T10:02:17.165Z,21.98
2022-10-09T10:04:56.432Z,22.10
2022-10-09T10:07:36.312Z,19.98
2022-10-09T10:10:25.621Z,18.73
2022-10-09T10:12:58.703Z,19.95
2022-10-09T10:15:27.542Z,19.83
2022-10-09T10:18:06.721Z,18.40
2022-10-09T10:20:44.795Z,19.02
2022-10-09T10:23:33.276Z,15.20
2022-10-09T10:26:05.849Z,16.63
2022-10-09T10:28:41.560Z,12.23
2022-10-09T10:31:16.246Z,16.98
2022-10-09T10:33:47.933Z,24.17
2022-10-09T10:36:15.045Z,17.38
2022-10-09T10:38:52.619Z,17.23
2022-10-09T10:41:27.959Z,13.20
2022-10-09T10:44:17.925Z,11.45
2022-10-09T10:46:52.460Z,8.73
2022-10-09T10:49:23.282Z,12.43
2022-10-09T10:52:04.392Z,11.40
2022-10-09T10:54:43.013Z,11.02
2022-10-09T10:57:33.391Z,13.35
2022-10-09T11:00:14.014Z,13.02
2022-10-09T11:02:59.403Z,14.35
2022-10-09T11:05:30.199Z,14.98
2022-10-09T11:08:24.516Z,13.93
2022-10-09T11:11:19.476Z,13.90
2022-10-09T11:13:56.492Z,11.95
2022-10-09T11:17:04.417Z,12.30
2022-10-09T11:20:05.429Z,12.32
2022-10-09T11:22:53.436Z,14.35
2022-10-09T11:25:40.680Z,11.73
2022-10-09T11:28:22.817Z,12.13
2022-10-09T11:31:20.448Z,11.98
2022-10-09T11:33:52.032Z,15.38
2022-10-09T11:36:25.136Z,16.65
2022-10-09T11:38:57.633Z,13.82
2022-10-09T11:41:26.494Z,16.35
2022-10-09T11:44:05.266Z,15.98
2022-10-09T11:46:50.042Z,14.85
2022-10-09T11:49:23.170Z,14.18
2022-10-09T11:52:04.126Z,11.65
2022-10-09T11:54:31.079Z,16.30
2022-10-09T11:57:06.193Z,17.05
2022-10-09T11:59:36.565Z,19.35
2022-10-09T12:02:39.006Z,19.55
2022-10-09T12:05:44.602Z,20.67
2022-10-09T12:08:19.212Z,15.82
2022-10-09T12:11:00.317Z,18.40
2022-10-09T12:13:39.099Z,16.95
2022-10-09T12:16:07.758Z,17.33
2022-10-09T12:18:39.032Z,18.17
2022-10-09T12:21:09.050Z,18.52
2022-10-09T12:23:41.015Z,17.33
2022-10-09T12:26:13.045Z,14.90
2022-10-09T12:28:45.980Z,12.27
2022-10-09T12:31:21.491Z,12.25
2022-10-09T12:36:26.770Z,11.85
2022-10-09T12:38:54.056Z,11.55
2022-10-09T12:41:26.654Z,13.18
2022-10-09T12:43:55.365Z,12.93
2022-10-09T12:46:30.536Z,11.20
2022-10-09T12:48:58.480Z,16.35
2022-10-09T12:51:26.963Z,10.70
2022-10-09T12:53:54.652Z,13.45
2022-10-09T12:56:25.442Z,12.35
2022-10-09T12:58:53.433Z,11.32
2022-10-09T13:01:21.363Z,14.85
2022-10-09T13:04:04.235Z,14.70
2022-10-09T13:06:38.395Z,14.57
2022-10-09T13:09:07.444Z,10.73
2022-10-09T13:11:35.439Z,10.48
2022-10-09T13:14:02.346Z,9.15
2022-10-09T13:16:42.129Z,9.90
2022-10-09T13:19:38.266Z,14.45
2022-10-09T13:22:18.479Z,19.45
2022-10-09T13:24:45.413Z,8.25
2022-10-09T13:27:14.650Z,8.25
2022-10-09T13:29:43.011Z,6.97
2022-10-09T13:32:13.225Z,5.90
2022-10-09T13:34:40.198Z,7.65
2022-10-09T13:37:06.841Z,8.75
2022-10-09T13:39:33.693Z,32.80
2022-10-09T13:42:01.990Z,15.82
2022-10-09T13:44:28.797Z,6.03
2022-10-09T13:46:55.565Z,6.80
2022-10-09T13:49:22.234Z,11.05
2022-10-09T13:51:48.874Z,6.15
2022-10-09T13:54:15.620Z,6.43
2022-10-09T13:56:42.193Z,12.88
2022-10-09T13:59:08.904Z,5.40
2022-10-09T14:01:35.636Z,6.22
2022-10-09T14:04:02.491Z,4.43
2022-10-09T14:06:29.058Z,8.85
2022-10-09T14:08:57.399Z,4.97
2022-10-09T14:11:24.108Z,5.38
2022-10-09T14:13:50.682Z,5.50
2022-10-09T14:16:17.338Z,10.15
2022-10-09T14:18:44.078Z,8.35
2022-10-09T14:21:16.042Z,6.40
2022-10-09T14:23:43.355Z,4.75
2022-10-09T14:26:10.105Z,4.20
2022-10-09T14:28:37.074Z,3.90
2022-10-09T14:31:07.645Z,5.72
2022-10-09T14:33:34.713Z,4.10
2022-10-09T14:36:09.461Z,5.43
2022-10-09T14:38:40.407Z,4.30
2022-10-09T14:41:07.801Z,3.22
2022-10-09T14:43:35.480Z,4.28
2022-10-09T14:46:04.835Z,7.22
2022-10-09T14:48:31.447Z,6.10
2022-10-09T14:51:03.197Z,5.43
2022-10-09T14:53:29.957Z,3.22
2022-10-09T14:56:00.130Z,3.30
2022-10-09T14:58:29.320Z,3.72
2022-10-09T15:00:56.246Z,3.65
2022-10-09T15:03:23.061Z,5.95
2022-10-09T15:05:49.816Z,3.95
2022-10-09T15:08:16.518Z,3.10
2022-10-09T15:10:46.206Z,7.40
2022-10-09T15:13:12.913Z,5.32
2022-10-09T15:15:39.819Z,2.88
2022-10-09T15:18:06.564Z,3.33
2022-10-09T15:20:33.425Z,3.10
2022-10-09T15:23:00.098Z,3.50
2022-10-09T15:25:31.636Z,3.85
2022-10-09T15:28:00.758Z,10.32
2022-10-09T15:30:29.049Z,6.32
2022-10-09T15:32:56.305Z,11.85
2022-10-09T15:35:23.374Z,15.55
2022-10-09T15:37:53.738Z,69.25
2022-10-09T15:40:22.575Z,12.45
2022-10-09T15:42:49.727Z,7.10
2022-10-09T15:45:16.637Z,8.77
2022-10-09T15:47:51.015Z,4.28
2022-10-09T15:50:18.347Z,8.45
2022-10-09T15:52:44.927Z,4.80
2022-10-09T15:55:11.591Z,3.60
2022-10-09T15:57:38.231Z,3.17
2022-10-09T16:00:05.706Z,3.95
2022-10-09T16:02:32.425Z,4.15
2022-10-09T16:04:59.142Z,5.03
2022-10-09T16:07:25.801Z,3.20
2022-10-09T16:09:52.930Z,4.50
2022-10-09T16:12:19.665Z,5.68
2022-10-09T16:14:46.295Z,6.05
2022-10-09T16:17:12.925Z,4.47
2022-10-09T16:19:39.736Z,4.88
2022-10-09T16:22:06.726Z,6.18
2022-10-09T16:24:33.696Z,10.13
2022-10-09T16:27:00.542Z,8.52
2022-10-09T16:29:27.278Z,14.32
2022-10-09T16:31:56.072Z,8.63
2022-10-09T16:34:22.911Z,14.15
2022-10-09T16:36:49.607Z,11.48
2022-10-09T16:39:17.281Z,8.48
2022-10-09T16:41:44.016Z,9.02
2022-10-09T16:44:13.805Z,5.68
2022-10-09T16:46:40.447Z,7.53
2022-10-09T16:49:07.282Z,7.05
2022-10-09T16:51:36.231Z,5.72
2022-10-09T16:54:05.336Z,7.50
2022-10-09T16:56:35.005Z,5.65
2022-10-09T16:59:05.251Z,5.10
2022-10-09T17:01:32.968Z,13.75
2022-10-09T17:04:00.280Z,33.42
2022-10-09T17:06:27.195Z,7.32
2022-10-09T17:08:57.573Z,18.02
2022-10-09T17:11:25.788Z,11.75
2022-10-09T17:13:56.643Z,15.95
2022-10-09T17:16:27.047Z,15.88
2022-10-09T17:18:54.413Z,7.30
2022-10-09T17:21:21.351Z,4.10
2022-10-09T17:23:48.277Z,2.53
2022-10-09T17:26:17.227Z,2.53
2022-10-09T17:28:44.524Z,3.67
2022-10-09T17:31:16.778Z,6.03
2022-10-09T17:33:45.994Z,5.40
2022-10-09T17:36:15.283Z,9.32
2022-10-09T17:38:42.089Z,6.68
2022-10-09T17:41:11.490Z,5.15
2022-10-09T17:43:38.847Z,7.00
2022-10-09T17:46:06.065Z,9.15
2022-10-09T17:48:34.136Z,16.65
2022-10-09T17:51:03.920Z,5.90
2022-10-09T17:53:31.338Z,4.70
2022-10-09T17:56:03.201Z,6.53
2022-10-09T17:58:29.978Z,6.70
2022-10-09T18:00:56.647Z,4.32
2022-10-09T18:03:23.412Z,4.40
2022-10-09T18:05:51.418Z,5.63
2022-10-09T18:08:19.671Z,7.38
2022-10-09T18:10:46.451Z,5.47
2022-10-09T18:13:13.169Z,4.10
2022-10-09T18:15:42.060Z,4.45
2022-10-09T18:18:10.340Z,6.70
2022-10-09T18:20:38.525Z,10.15
2022-10-09T18:23:05.710Z,4.43
2022-10-09T18:25:32.884Z,3.60
2022-10-09T18:27:59.946Z,5.13
2022-10-09T18:30:27.766Z,7.13
2022-10-09T18:32:54.605Z,4.25
2022-10-09T18:35:21.328Z,8.15
2022-10-09T18:37:48.052Z,5.80
2022-10-09T18:40:14.636Z,11.43
2022-10-09T18:42:41.451Z,13.68
2022-10-09T18:45:10.334Z,12.00
2022-10-09T18:47:37.057Z,10.60
2022-10-09T18:50:07.994Z,8.13
2022-10-09T18:52:36.922Z,9.77
2022-10-09T18:55:06.140Z,5.50
2022-10-09T18:57:34.204Z,5.68
2022-10-09T19:00:01.944Z,6.03
2022-10-09T19:02:28.763Z,5.70
2022-10-09T19:04:55.550Z,4.32
2022-10-09T19:07:22.440Z,4.18
2022-10-09T19:09:53.608Z,4.22
2022-10-09T19:12:23.182Z,4.47
2022-10-09T19:14:49.902Z,5.38
2022-10-09T19:17:16.882Z,3.63
2022-10-09T19:19:43.656Z,6.45
2022-10-09T19:22:14.866Z,5.80
2022-10-09T19:24:43.727Z,5.40
2022-10-09T19:27:10.497Z,4.57
2022-10-09T19:29:37.356Z,7.88
2022-10-09T19:32:04.096Z,8.27
2022-10-09T19:34:30.889Z,6.05
2022-10-09T19:36:57.723Z,5.97
2022-10-09T19:39:24.398Z,9.10
2022-10-09T19:41:51.160Z,7.30
2022-10-09T19:44:18.595Z,5.40
2022-10-09T19:46:45.895Z,4.85
2022-10-09T19:49:12.735Z,5.85
2022-10-09T19:51:39.577Z,5.45
2022-10-09T19:54:07.979Z,6.72
2022-10-09T19:56:36.108Z,6.85
2022-10-09T19:59:05.694Z,6.60
2022-10-09T20:01:35.264Z,5.88
2022-10-09T20:04:07.553Z,5.20
2022-10-09T20:06:36.891Z,5.95
2022-10-09T20:09:04.894Z,5.43
2022-10-09T20:11:32.028Z,5.00
2022-10-09T20:13:58.832Z,5.18
2022-10-09T20:16:27.740Z,5.57
2022-10-09T20:18:55.392Z,6.63
2022-10-09T20:21:22.171Z,4.85
2022-10-09T20:23:48.731Z,4.78
2022-10-09T20:26:18.406Z,5.60
2022-10-09T20:28:46.322Z,4.28
2022-10-09T20:31:18.027Z,8.00
2022-10-09T20:33:46.015Z,6.90
2022-10-09T20:36:32.530Z,5.53
2022-10-09T20:39:00.854Z,4.88
2022-10-09T20:41:29.328Z,5.65
2022-10-09T20:43:58.290Z,5.13
2022-10-09T20:46:27.911Z,8.32
2022-10-09T20:48:55.038Z,4.47
2022-10-09T20:51:22.396Z,5.35
2022-10-09T20:53:57.731Z,4.68
2022-10-09T20:58:54.225Z,9.50
2022-10-09T21:01:22.024Z,6.78
2022-10-09T21:03:49.786Z,5.22
2022-10-09T21:06:19.747Z,6.07
2022-10-09T21:08:46.518Z,8.75
2022-10-09T21:11:19.546Z,7.40
2022-10-09T21:13:49.505Z,4.95
2022-10-09T21:16:22.335Z,9.88
2022-10-09T21:18:54.351Z,4.90
2022-10-09T21:21:21.140Z,6.15
2022-10-09T21:23:54.249Z,7.30
2022-10-09T21:26:22.840Z,5.43
2022-10-09T21:28:52.444Z,4.70
2022-10-09T21:31:26.037Z,4.97
2022-10-09T21:33:53.003Z,7.32
2022-10-09T21:36:30.591Z,5.53
2022-10-09T21:38:57.651Z,6.25
2022-10-09T21:41:24.609Z,7.97
2022-10-09T21:43:51.460Z,4.22
2022-10-09T21:46:18.018Z,7.18
2022-10-09T21:48:44.957Z,10.10
2022-10-09T21:51:11.604Z,4.43
2022-10-09T21:53:38.445Z,5.30
2022-10-09T21:56:06.698Z,4.90
2022-10-09T21:58:33.458Z,5.28
2022-10-09T22:01:01.444Z,4.53
2022-10-09T22:03:30.386Z,5.18
2022-10-09T22:05:57.322Z,5.95
2022-10-09T22:08:24.756Z,5.88
2022-10-09T22:10:52.318Z,5.07
2022-10-09T22:13:20.239Z,6.43
2022-10-09T22:15:50.921Z,4.22
2022-10-09T22:18:19.074Z,6.30
2022-10-09T22:20:49.214Z,6.75
2022-10-09T22:23:18.027Z,5.75
2022-10-09T22:25:44.948Z,4.40
2022-10-09T22:28:11.664Z,8.18
2022-10-09T22:30:38.228Z,6.07
2022-10-09T22:33:04.907Z,7.47
2022-10-09T22:35:31.509Z,8.55
2022-10-09T22:37:58.162Z,4.47
2022-10-09T22:40:24.732Z,6.05
2022-10-09T22:42:51.719Z,5.97
2022-10-09T22:45:18.550Z,5.63
2022-10-09T22:47:47.494Z,4.85
2022-10-09T22:50:14.435Z,11.15
2022-10-09T22:52:41.033Z,7.30
2022-10-09T22:55:08.031Z,8.77
2022-10-09T22:57:34.745Z,5.68
2022-10-09T23:00:01.283Z,7.43
2022-10-09T23:02:27.878Z,6.32
2022-10-09T23:04:54.509Z,11.93
2022-10-09T23:07:21.161Z,5.30
2022-10-09T23:09:47.771Z,7.05
2022-10-09T23:12:14.583Z,6.30
2022-10-09T23:14:41.120Z,5.45
2022-10-09T23:17:07.766Z,7.50
2022-10-09T23:19:34.762Z,7.60
2022-10-09T23:22:01.494Z,9.23
2022-10-09T23:24:28.049Z,6.53
2022-10-09T23:26:54.715Z,6.90
2022-10-09T23:29:21.340Z,7.53
2022-10-09T23:31:51.509Z,9.30
2022-10-09T23:34:18.227Z,5.82
2022-10-09T23:36:44.776Z,4.80
2022-10-09T23:39:12.674Z,4.90
2022-10-09T23:41:39.524Z,9.77
2022-10-09T23:44:06.207Z,5.70
2022-10-09T23:46:33.803Z,10.38
2022-10-09T23:49:01.156Z,7.70
2022-10-09T23:51:28.539Z,7.50
2022-10-09T23:53:55.732Z,6.35
2022-10-09T23:56:27.953Z,5.35
2022-10-09T23:58:55.713Z,7.63
